Penns Park, PA (18943)

1:30 PM EDT on May 28, 2015 (GMT -0400)
KPARICHB3 | | Change Station
CLOSE
Current Station
Personal Weather Station
Location: Richboro, PA
Elevation: 358 ft
Nearby Weather Stations

Elev 358 ft 40.22 °N, 75.01 °W | Updated 56 seconds ago

Overcast
Overcast
86.5 °F
Feels Like 93 °F
N
0.0
Wind Variable Wind from East
Gusts 0.0 mph

Today
High -- | Low -- °F
--% Chance of Precip.
Yesterday
High -- | Low -- °F
Precip. -- in
5:34 AM 8:20 PM
Waxing Gibbous, 77% visible
Pressure 30.14 in
Visibility 10.0 miles
Clouds Few 3700 ft
Heat Index 93 °F
Dew Point 75 °F
Humidity 62%
Rainfall 2.61 in
Snow Depth Not available.
UV 11 out of 12
Pollen 7.40 out of 12
Air Quality Not available.
Flu Activity Sporadic
METAR KDYL 281654Z AUTO 23007KT 10SM FEW037 29/18 A3016 RMK AO2 SLP207 T02890183

More Conditions Fewer Conditions

Pressure 30.14 in
Visibility 10.0 miles
Clouds Few 3700 ft
Heat Index 93 °F
Dew Point 75 °F
Humidity 62%
Rainfall 2.61 in
Snow Depth Not available.
UV 11 out of 12
Pollen 7.40 out of 12
Air Quality Not available.
Flu Activity Sporadic
METAR KDYL 281654Z AUTO 23007KT 10SM FEW037 29/18 A3016 RMK AO2 SLP207 T02890183

More Conditions Fewer Conditions

10-Day Weather Forecast

Almanac

Astronomy

May. 28, 2015 Rise Set
Actual Time
Civil Twilight
Nautical Twilight
Astronomical Twilight
Moon
Length of Visible Light
Length of Day
Tomorrow will be .
, % of the Moon is Illuminated

Today's Extremes

State Highs State Lows

Community

WunderPhotos

Upload Photos

1,825,007 photos uploaded!

WunderBlogs® & News

Nearby

Air Quality

  Air Quality AQ Index Pollutant
Not available.

Snow Depth

Station Depth Elevation

Earthquake Activity

City Distance Mag. Time & Date
Minimum magnitude displayed is 2.5.

Coastal Water Temperatures

Place Temperature

Stations

Nearby Weather Stations

Station Location Temp. Windchill Dew Point Humidity Wind Precip. Elev Updated Type